»·PEaware :: AAL576 KSLC-KSAN

AAL576 :: KSLC-KSAN

FLIGHT INFORMATION

Flight Status: Arrived
Operator:
American Airlines
More flights by this operator :: More flights under this callsign
Pilot: Anonymous 8274 (8274)
Aircraft: BOEING 727-100
(B721)
More flights by this aircraft type
Origin: KSLC Salt Lake City Intl
United States
Destination: KSAN San Diego Intl-Lindbergh
United States
More flights between these airports :: More routes between these airports
Route: +SLC4 FFU J11 DRK J231 TNP BARET5
File this flight plan on PilotEdge
Remarks:
Altitude:
(Current/Filed)
31,000ft
Speed:
(Current/Filed)
460kts
Departed: 17-Aug-18 08:11 PM
Arrived: 17-Aug-18 10:04 PM
Distance/Time
Traveled:
544nm/1:53
Distance/Time
To Go:
Arrived

Flight Plot

Page will automatically refresh every two minutes.

Flight plan parsing failed; only flown route is shown


Map Options




Map Legend


Flown Route
Filed Route
Departure Airport
Arrival Airport
Navaid (VOR, NDB)
Fix

Horizontal Profiles

Position Reports

Time Latitude Longitude Heading Altitude Ground
Speed
17-Aug-18 19:32 40.788096 -111.980935 284 4239ft 0kts
17-Aug-18 19:33 40.788096 -111.980935 284 4239ft 0kts
17-Aug-18 19:34 40.788096 -111.980935 284 4239ft 0kts
17-Aug-18 19:35 40.788096 -111.980935 284 4239ft 0kts
17-Aug-18 19:36 40.788096 -111.980935 284 4239ft 0kts
17-Aug-18 19:37 40.788096 -111.980935 284 4239ft 0kts
17-Aug-18 19:38 40.788096 -111.980935 284 4239ft 0kts
17-Aug-18 19:39 40.788096 -111.980935 284 4239ft 0kts
17-Aug-18 19:40 40.788096 -111.980935 284 4239ft 0kts
17-Aug-18 19:41 40.788096 -111.980935 284 4239ft 0kts
17-Aug-18 19:42 40.788096 -111.980935 284 4239ft 0kts
17-Aug-18 19:43 40.788096 -111.980935 284 4239ft 0kts
17-Aug-18 19:44 40.788096 -111.980935 284 4238ft 0kts
17-Aug-18 19:45 40.788096 -111.980935 284 4238ft 0kts
17-Aug-18 19:46 40.788096 -111.980935 284 4238ft 0kts
17-Aug-18 19:47 40.788096 -111.980935 284 4238ft 0kts
17-Aug-18 19:48 40.788096 -111.980935 284 4238ft 0kts
17-Aug-18 19:49 40.788096 -111.980935 284 4238ft 0kts
17-Aug-18 19:50 40.788096 -111.980935 284 4238ft 0kts
17-Aug-18 19:51 40.788096 -111.980935 284 4238ft 0kts
17-Aug-18 19:52 40.788096 -111.980935 284 4238ft 0kts
17-Aug-18 19:53 40.788096 -111.980935 284 4238ft 0kts
17-Aug-18 19:54 40.788004 -111.980474 300 4238ft 2kts
17-Aug-18 19:55 40.787565 -111.980309 22 4238ft 1kts
17-Aug-18 19:56 40.787554 -111.980315 21 4238ft 0kts
17-Aug-18 19:57 40.787554 -111.980315 21 4238ft 0kts
17-Aug-18 19:58 40.787554 -111.980315 21 4238ft 0kts
17-Aug-18 19:59 40.787554 -111.980315 21 4238ft 0kts
17-Aug-18 20:00 40.787554 -111.980315 21 4238ft 0kts
17-Aug-18 20:01 40.787916 -111.980136 19 4238ft 8kts
17-Aug-18 20:02 40.789684 -111.978633 85 4238ft 0kts
17-Aug-18 20:03 40.789684 -111.978633 85 4238ft 0kts
17-Aug-18 20:04 40.788969 -111.976972 174 4238ft 13kts
17-Aug-18 20:05 40.782961 -111.976268 175 4238ft 26kts
17-Aug-18 20:06 40.776691 -111.975041 174 4238ft 28kts
17-Aug-18 20:07 40.774751 -111.974796 160 4238ft 0kts
17-Aug-18 20:08 40.774751 -111.974797 160 4238ft 0kts
17-Aug-18 20:09 40.774751 -111.974797 160 4238ft 0kts
17-Aug-18 20:10 40.774589 -111.974695 139 4238ft 5kts
17-Aug-18 20:11 40.776483 -111.973341 354 4239ft 35kts
17-Aug-18 20:12 40.816789 -111.979815 330 5799ft 160kts
17-Aug-18 20:13 40.835723 -112.032299 290 7460ft 222kts
17-Aug-18 20:14 40.839118 -112.120369 232 9960ft 291kts
17-Aug-18 20:15 40.761281 -112.143925 184 13682ft 304kts
17-Aug-18 20:16 40.667136 -112.146940 183 15929ft 352kts
17-Aug-18 20:17 40.567501 -112.144188 181 18702ft 368kts
17-Aug-18 20:18 40.464032 -112.141067 181 21131ft 382kts
17-Aug-18 20:19 40.356486 -112.137746 181 23258ft 395kts
17-Aug-18 20:20 40.240513 -112.134439 181 23348ft 430kts
17-Aug-18 20:21 40.120569 -112.131099 181 24720ft 436kts
17-Aug-18 20:22 40.001354 -112.127278 181 26318ft 431kts
17-Aug-18 20:23 39.882818 -112.123318 182 27880ft 432kts
17-Aug-18 20:24 39.762251 -112.124143 183 29041ft 440kts
17-Aug-18 20:25 39.638977 -112.129946 185 30091ft 447kts
17-Aug-18 20:26 39.515304 -112.141080 188 31195ft 448kts
17-Aug-18 20:27 39.388419 -112.156806 189 31269ft 473kts
17-Aug-18 20:28 39.254910 -112.176299 189 31267ft 493kts
17-Aug-18 20:29 39.120910 -112.195819 189 31258ft 474kts
17-Aug-18 20:30 38.993075 -112.214042 189 31258ft 454kts
17-Aug-18 20:31 38.871539 -112.230545 187 31263ft 443kts
17-Aug-18 20:32 38.749557 -112.240692 184 31264ft 444kts
17-Aug-18 20:33 38.625317 -112.243787 184 31265ft 451kts
17-Aug-18 20:34 38.499276 -112.246900 183 31211ft 458kts
17-Aug-18 20:35 38.371677 -112.250085 183 31210ft 463kts
17-Aug-18 20:36 38.243289 -112.258140 185 31209ft 465kts
17-Aug-18 20:37 38.114295 -112.267191 185 31327ft 466kts
17-Aug-18 20:38 37.985701 -112.280849 188 31452ft 465kts
17-Aug-18 20:39 37.862917 -112.292765 185 31454ft 468kts
17-Aug-18 20:40 37.733033 -112.303225 185 31453ft 474kts
17-Aug-18 20:41 37.601251 -112.312712 184 31453ft 478kts
17-Aug-18 20:42 37.467746 -112.320788 183 31452ft 483kts
17-Aug-18 20:43 37.333827 -112.326390 184 31453ft 486kts
17-Aug-18 20:44 37.199116 -112.334700 184 31454ft 489kts
17-Aug-18 20:45 37.062861 -112.343092 184 31454ft 492kts
17-Aug-18 20:46 36.926096 -112.351504 184 31365ft 497kts
17-Aug-18 20:47 36.794667 -112.359672 184 31263ft 500kts
17-Aug-18 20:48 36.656237 -112.368273 184 31263ft 501kts
17-Aug-18 20:49 36.517232 -112.376848 184 31366ft 499kts
17-Aug-18 20:50 36.379319 -112.385217 184 31398ft 497kts
17-Aug-18 20:51 36.242160 -112.393495 184 31398ft 496kts
17-Aug-18 20:52 36.104890 -112.401731 184 31399ft 495kts
17-Aug-18 20:53 35.967500 -112.407942 184 31396ft 493kts
17-Aug-18 20:54 35.837387 -112.413318 184 31397ft 492kts
17-Aug-18 20:55 35.702074 -112.418047 184 31397ft 490kts
17-Aug-18 20:56 35.566351 -112.422716 184 31396ft 488kts
17-Aug-18 20:57 35.431391 -112.427293 184 31397ft 487kts
17-Aug-18 20:58 35.296292 -112.431816 184 31397ft 486kts
17-Aug-18 20:59 35.162269 -112.436250 184 31367ft 486kts
17-Aug-18 21:00 35.028266 -112.450668 188 31289ft 484kts
17-Aug-18 21:01 34.900059 -112.467632 189 31293ft 484kts
17-Aug-18 21:02 34.777078 -112.479313 184 31289ft 484kts
17-Aug-18 21:03 34.645558 -112.497648 210 31295ft 471kts
17-Aug-18 21:04 34.582654 -112.624199 264 31303ft 455kts
17-Aug-18 21:05 34.568439 -112.773633 264 31292ft 458kts
17-Aug-18 21:06 34.564189 -112.927874 266 31282ft 458kts
17-Aug-18 21:07 34.531978 -113.076310 253 31292ft 459kts
17-Aug-18 21:08 34.493204 -113.223978 253 31291ft 462kts
17-Aug-18 21:09 34.485433 -113.373290 296 31295ft 457kts
17-Aug-18 21:10 34.533714 -113.513450 287 31161ft 459kts
17-Aug-18 21:11 34.547294 -113.659048 260 31111ft 461kts
17-Aug-18 21:12 34.501139 -113.804505 249 30961ft 467kts
17-Aug-18 21:13 34.455492 -113.951757 250 30968ft 468kts
17-Aug-18 21:14 34.410143 -114.099248 250 30967ft 469kts
17-Aug-18 21:15 34.364921 -114.246429 251 30967ft 470kts
17-Aug-18 21:16 34.329602 -114.397421 263 30973ft 466kts
17-Aug-18 21:17 34.313618 -114.552756 264 30919ft 469kts
17-Aug-18 21:18 34.312308 -114.704668 270 30958ft 467kts
17-Aug-18 21:19 34.305252 -114.860800 258 30981ft 468kts
17-Aug-18 21:20 34.275830 -115.013982 258 30968ft 470kts
17-Aug-18 21:21 34.246243 -115.167510 258 30967ft 471kts
17-Aug-18 21:22 34.212165 -115.320135 254 31120ft 470kts
17-Aug-18 21:23 34.173591 -115.470687 255 31128ft 471kts
17-Aug-18 21:24 34.141301 -115.623844 257 31129ft 472kts
17-Aug-18 21:25 34.115757 -115.762921 254 31099ft 448kts
17-Aug-18 21:26 34.046441 -115.880373 204 28303ft 459kts
17-Aug-18 21:27 33.923817 -115.879123 171 26369ft 446kts
17-Aug-18 21:28 33.808656 -115.853405 177 24341ft 431kts
17-Aug-18 21:29 33.692838 -115.867799 190 22174ft 416kts
17-Aug-18 21:30 33.584563 -115.891274 194 21944ft 394kts
17-Aug-18 21:31 33.477179 -115.919316 194 21940ft 400kts
17-Aug-18 21:32 33.400970 -115.999812 250 21948ft 377kts
17-Aug-18 21:33 33.368994 -116.117673 259 21942ft 376kts
17-Aug-18 21:34 33.325873 -116.228884 217 21962ft 389kts
17-Aug-18 21:35 33.238507 -116.301350 220 20148ft 380kts
17-Aug-18 21:36 33.157870 -116.378687 228 18396ft 367kts
17-Aug-18 21:37 33.090122 -116.465453 231 17053ft 346kts
17-Aug-18 21:38 33.029475 -116.550494 225 15450ft 330kts
17-Aug-18 21:39 32.959769 -116.625468 218 12004ft 351kts
17-Aug-18 21:40 32.880397 -116.656291 183 11986ft 340kts
17-Aug-18 21:41 32.789765 -116.670274 188 10268ft 316kts
17-Aug-18 21:42 32.721018 -116.713941 237 9016ft 270kts
17-Aug-18 21:43 32.692230 -116.790698 251 9013ft 247kts
17-Aug-18 21:44 32.667610 -116.871402 251 7401ft 278kts
17-Aug-18 21:45 32.673412 -116.957889 300 5771ft 254kts
17-Aug-18 21:46 32.696008 -117.029156 280 3336ft 232kts
17-Aug-18 21:47 32.712202 -117.100483 285 2363ft 214kts
17-Aug-18 21:48 32.726229 -117.161206 288 999ft 183kts
17-Aug-18 21:49 32.742432 -117.225781 285 3120ft 229kts
17-Aug-18 21:50 32.762696 -117.300028 290 2922ft 232kts
17-Aug-18 21:51 32.805928 -117.335090 33 2704ft 244kts
17-Aug-18 21:52 32.818868 -117.256889 101 3970ft 261kts
17-Aug-18 21:53 32.804439 -117.172465 101 3984ft 264kts
17-Aug-18 21:54 32.789497 -117.077866 102 4956ft 302kts
17-Aug-18 21:55 32.775092 -116.986665 101 4937ft 262kts
17-Aug-18 21:56 32.761976 -116.906965 113 4945ft 229kts
17-Aug-18 21:57 32.708467 -116.894572 191 4130ft 221kts
17-Aug-18 21:58 32.673990 -116.939006 265 3939ft 185kts
17-Aug-18 21:59 32.685009 -116.993888 284 3253ft 162kts
17-Aug-18 22:00 32.697845 -117.042641 287 2629ft 150kts
17-Aug-18 22:01 32.709301 -117.087141 285 1861ft 132kts
17-Aug-18 22:02 32.718529 -117.128491 285 1055ft 129kts
17-Aug-18 22:03 32.728451 -117.168653 287 305ft 126kts
17-Aug-18 22:04 32.735975 -117.199641 286 26ft 45kts
17-Aug-18 22:05 32.735694 -117.202148 196 26ft 0kts
17-Aug-18 22:06 32.733885 -117.202748 183 26ft 17kts
17-Aug-18 22:07 32.732632 -117.202351 172 26ft 9kts
17-Aug-18 22:08 32.698350 -117.042891 280 2814ft 232kts
17-Aug-18 22:09 32.708036 -117.084096 287 2684ft 215kts
17-Aug-18 22:10 32.723303 -117.147273 285 1295ft 182kts
17-Aug-18 22:11 32.738725 -117.208670 286 2236ft 223kts
17-Aug-18 22:12 32.722716 -117.144770 286 772ft 126kts
17-Aug-18 22:13 32.732330 -117.184625 286 36ft 121kts
17-Aug-18 22:14 32.701586 -117.056564 289 2502ft 142kts
17-Aug-18 22:15 32.712122 -117.099722 284 1603ft 129kts
17-Aug-18 22:16 32.721710 -117.140727 287 832ft 128kts
17-Aug-18 22:17 32.729729 -117.174018 286 194ft 126kts
17-Aug-18 22:18 32.736011 -117.202037 197 26ft 16kts
17-Aug-18 22:19 32.735694 -117.202148 196 26ft 0kts
17-Aug-18 22:20 32.733233 -117.202594 162 26ft 17kts

Navigation Log

Ident Type
Flight plan parsing failed, navigation log unavailable